Time;durP1;ratioP1;P1;durP2;ratioP2;P2;SDS_P1;SDS_P2;PMS_P1;PMS_P2;Temp;Humidity;BMP_temperature;BMP_pressure;BME280_temperature;BME280_humidity;BME280_pressure;Samples;Min_cycle;Max_cycle;Signal;HPM_P1;HPM_P2
2022/12/29 00:00:04;;;;;;;5.35;3.10;;;;;;;10.73;100.00;99641.63;4998155;28;20207;-71
2022/12/29 00:02:30;;;;;;;5.75;3.45;;;;;;;10.77;100.00;99640.50;5004571;28;20223;-70
2022/12/29 00:04:57;;;;;;;5.70;2.55;;;;;;;10.74;100.00;99638.00;4999274;28;20263;-72
2022/12/29 00:07:25;;;;;;;4.00;2.70;;;;;;;10.79;100.00;99632.34;4996085;28;20202;-71
2022/12/29 00:09:51;;;;;;;3.08;2.20;;;;;;;10.80;100.00;99629.53;4995791;28;20474;-72
2022/12/29 00:12:18;;;;;;;3.97;2.72;;;;;;;10.77;100.00;99628.84;4996207;28;20294;-71
2022/12/29 00:17:28;;;;;;;6.15;2.75;;;;;;;10.72;100.00;99630.94;4995535;28;20277;-73
2022/12/29 00:36:21;;;;;;;3.72;3.00;;;;;;;10.38;100.00;99633.75;4949928;29;20229;-73
2022/12/29 00:44:21;;;;;;;4.15;2.90;;;;;;;10.52;100.00;99635.66;4937607;29;20228;-73
2022/12/29 00:46:47;;;;;;;4.90;2.92;;;;;;;10.57;100.00;99647.03;4938329;29;20205;-72
2022/12/29 00:49:32;;;;;;;2.65;1.98;;;;;;;10.58;100.00;99640.69;4940438;29;20207;-73
2022/12/29 00:52:00;;;;;;;4.35;2.58;;;;;;;10.56;100.00;99639.03;4960640;29;20181;-74
2022/12/29 00:54:29;;;;;;;3.85;3.08;;;;;;;10.39;100.00;99640.00;4958345;29;20224;-73
2022/12/29 00:56:56;;;;;;;3.95;2.35;;;;;;;10.36;100.00;99637.50;4959334;29;20208;-72
2022/12/29 00:59:23;;;;;;;3.90;2.97;;;;;;;10.40;100.00;99636.34;4955651;28;20980;-74
2022/12/29 01:01:51;;;;;;;5.80;2.60;;;;;;;10.51;100.00;99635.75;4955948;29;20291;-72
2022/12/29 01:04:18;;;;;;;4.10;2.35;;;;;;;10.57;100.00;99632.69;4941407;28;20651;-73
2022/12/29 01:06:44;;;;;;;2.70;2.30;;;;;;;10.58;100.00;99632.63;4936584;29;20209;-72
2022/12/29 01:11:57;;;;;;;3.20;2.40;;;;;;;10.69;100.00;99631.97;4934840;29;20189;-71
2022/12/29 01:14:24;;;;;;;2.75;2.42;;;;;;;10.73;100.00;99643.47;4983869;28;20246;-72
2022/12/29 01:16:51;;;;;;;3.22;2.10;;;;;;;10.75;100.00;99625.38;4994334;28;20653;-72
2022/12/29 01:19:19;;;;;;;3.90;2.17;;;;;;;10.77;100.00;99627.03;4993353;28;20199;-72
2022/12/29 01:21:45;;;;;;;4.30;2.13;;;;;;;10.78;100.00;99620.66;4998774;28;20223;-72
2022/12/29 01:24:12;;;;;;;2.90;2.15;;;;;;;10.82;100.00;99618.69;4994534;28;20226;-72
2022/12/29 01:26:39;;;;;;;2.85;1.88;;;;;;;10.80;100.00;99618.75;4995140;28;20579;-72
2022/12/29 01:29:07;;;;;;;2.88;1.65;;;;;;;10.83;100.00;99621.28;4994186;28;20199;-72
2022/12/29 01:31:33;;;;;;;3.92;2.15;;;;;;;10.82;100.00;99616.84;4998359;28;20199;-71
2022/12/29 01:34:00;;;;;;;4.32;2.40;;;;;;;10.83;100.00;99615.00;5011159;28;20290;-70
2022/12/29 01:36:27;;;;;;;3.13;1.60;;;;;;;10.83;100.00;99593.47;5011085;28;20721;-71
2022/12/29 01:38:53;;;;;;;2.72;1.95;;;;;;;10.85;100.00;99607.72;4992802;28;20262;-70
2022/12/29 01:41:20;;;;;;;4.05;2.00;;;;;;;10.79;100.00;99598.19;4992689;28;20223;-70
2022/12/29 01:43:50;;;;;;;2.85;2.17;;;;;;;10.81;100.00;99598.09;4991858;28;20287;-72
2022/12/29 01:46:31;;;;;;;5.22;2.13;;;;;;;10.82;100.00;99610.59;4978751;28;20557;-72
2022/12/29 01:49:04;;;;;;;2.88;1.73;;;;;;;10.79;100.00;99611.66;4976039;28;20665;-72
2022/12/29 01:51:34;;;;;;;3.03;2.42;;;;;;;10.79;100.00;99602.72;4991328;28;20191;-72
2022/12/29 01:54:05;;;;;;;3.67;2.00;;;;;;;10.77;100.00;99597.41;4996566;28;20227;-72
2022/12/29 01:56:32;;;;;;;3.70;2.30;;;;;;;10.76;100.00;99597.47;5002636;28;20195;-72
2022/12/29 01:59:04;;;;;;;3.00;2.00;;;;;;;10.75;100.00;99618.16;4998027;28;20207;-72
2022/12/29 02:01:32;;;;;;;2.10;1.60;;;;;;;10.80;100.00;99604.44;4998203;28;20243;-72
2022/12/29 02:03:59;;;;;;;2.75;1.90;;;;;;;10.78;100.00;99595.56;4998470;28;20242;-71
2022/12/29 02:06:30;;;;;;;2.95;2.35;;;;;;;10.81;100.00;99608.88;5015148;28;20251;-71
2022/12/29 02:08:58;;;;;;;3.38;2.65;;;;;;;10.84;100.00;99589.81;5015080;28;20243;-70
2022/12/29 02:11:27;;;;;;;4.45;2.20;;;;;;;10.87;100.00;99595.03;5014820;28;20235;-72
2022/12/29 02:13:54;;;;;;;4.32;2.40;;;;;;;10.90;100.00;99618.22;4999653;28;20227;-73
2022/12/29 02:16:37;;;;;;;1.80;1.33;;;;;;;10.96;100.00;99602.56;4998254;28;20226;-72
2022/12/29 02:19:33;;;;;;;3.28;1.73;;;;;;;10.98;100.00;99602.47;4992842;28;20203;-73
2022/12/29 02:22:15;;;;;;;2.15;1.60;;;;;;;11.00;100.00;99593.34;4992142;28;20226;-72
2022/12/29 02:25:13;;;;;;;2.25;1.23;;;;;;;11.04;100.00;99600.28;4993676;28;20219;-73
2022/12/29 02:28:13;;;;;;;2.30;1.67;;;;;;;11.05;100.00;99595.75;4992409;28;20208;-73
2022/12/29 02:30:45;;;;;;;2.65;1.40;;;;;;;11.05;100.00;99610.09;4993500;28;20199;-72
2022/12/29 02:33:24;;;;;;;2.00;1.40;;;;;;;11.11;100.00;99591.84;4993056;28;20230;-72
2022/12/29 02:35:58;;;;;;;1.83;1.30;;;;;;;11.11;100.00;99595.38;4993180;28;20188;-73
2022/12/29 02:38:37;;;;;;;1.70;1.45;;;;;;;11.11;100.00;99573.84;4995364;28;20207;-73
2022/12/29 02:41:08;;;;;;;5.38;1.52;;;;;;;11.10;100.00;99565.81;4996687;28;20217;-73
2022/12/29 02:43:39;;;;;;;3.70;1.73;;;;;;;10.97;100.00;99560.34;4996884;28;20245;-73
2022/12/29 02:46:15;;;;;;;2.47;1.08;;;;;;;10.97;100.00;99557.66;4996520;28;20184;-71
2022/12/29 02:48:47;;;;;;;1.95;1.35;;;;;;;10.97;100.00;99571.97;4996316;28;20184;-72
2022/12/29 02:51:19;;;;;;;2.25;1.48;;;;;;;10.95;100.00;99583.81;4989296;28;20267;-72
2022/12/29 02:56:31;;;;;;;1.65;1.27;;;;;;;11.01;100.00;99569.94;5000271;28;20210;-74
2022/12/29 02:58:57;;;;;;;1.80;1.30;;;;;;;11.02;100.00;99558.22;4997582;28;20195;-71
2022/12/29 03:01:35;;;;;;;2.40;1.35;;;;;;;11.07;100.00;99566.88;4996988;28;20223;-72
2022/12/29 03:04:19;;;;;;;6.85;1.60;;;;;;;11.14;100.00;99564.69;4996802;28;20211;-72
2022/12/29 03:06:57;;;;;;;2.10;1.33;;;;;;;11.14;100.00;99560.16;4997271;28;20187;-73
2022/12/29 03:09:36;;;;;;;2.67;1.30;;;;;;;11.16;100.00;99565.47;4995542;28;20528;-71
2022/12/29 03:12:15;;;;;;;3.95;1.75;;;;;;;11.17;100.00;99564.50;4996929;28;20179;-72
2022/12/29 03:17:47;;;;;;;2.40;1.10;;;;;;;11.28;100.00;99564.69;4995039;28;20203;-71
2022/12/29 03:20:19;;;;;;;3.15;1.00;;;;;;;11.32;100.00;99551.91;4997293;28;20210;-72
2022/12/29 03:22:49;;;;;;;2.58;1.40;;;;;;;11.33;100.00;99569.81;5002980;28;20308;-72
2022/12/29 03:25:23;;;;;;;3.22;1.45;;;;;;;11.34;100.00;99548.16;5017015;28;20251;-72
2022/12/29 03:27:53;;;;;;;3.47;1.35;;;;;;;11.37;100.00;99563.28;5018401;28;20202;-71
2022/12/29 03:30:20;;;;;;;2.78;1.67;;;;;;;11.38;100.00;99551.53;5019825;28;20206;-71
2022/12/29 03:32:53;;;;;;;2.85;1.70;;;;;;;11.33;100.00;99540.16;5008257;28;20249;-70
2022/12/29 03:35:23;;;;;;;2.38;1.33;;;;;;;11.30;100.00;99534.97;5021791;28;20179;-72
2022/12/29 03:37:56;;;;;;;1.95;1.33;;;;;;;11.25;100.00;99546.91;5017210;28;20188;-70
2022/12/29 03:40:24;;;;;;;2.78;1.35;;;;;;;11.27;100.00;99534.19;5019280;28;20312;-70
2022/12/29 03:42:51;;;;;;;2.40;1.70;;;;;;;11.35;100.00;99539.13;5019514;28;20218;-71
2022/12/29 03:45:18;;;;;;;3.55;1.70;;;;;;;11.37;100.00;99526.38;5012002;28;20295;-74
2022/12/29 03:47:44;;;;;;;3.20;1.83;;;;;;;11.41;100.00;99544.09;4997742;28;20222;-72
2022/12/29 03:50:13;;;;;;;4.55;1.40;;;;;;;11.48;100.00;99534.66;5001726;28;20203;-72
2022/12/29 03:52:40;;;;;;;1.92;1.50;;;;;;;11.49;100.00;99543.66;5000992;28;20195;-74
2022/12/29 03:55:07;;;;;;;4.70;1.55;;;;;;;11.52;100.00;99542.59;5001871;28;20625;-71
2022/12/29 03:57:34;;;;;;;2.17;1.27;;;;;;;11.52;100.00;99521.00;4999134;28;20214;-72
2022/12/29 04:00:00;;;;;;;4.82;1.65;;;;;;;11.51;100.00;99513.88;4999324;28;20302;-72
2022/12/29 04:02:27;;;;;;;1.88;1.30;;;;;;;11.53;100.00;99501.16;4996690;28;20231;-72
2022/12/29 04:04:53;;;;;;;1.98;1.42;;;;;;;11.63;100.00;99515.81;4997119;28;20704;-71
2022/12/29 04:07:21;;;;;;;3.38;1.40;;;;;;;11.63;100.00;99499.63;4996860;28;20215;-71
2022/12/29 04:09:48;;;;;;;3.00;1.60;;;;;;;11.66;100.00;99496.72;4995138;28;20206;-73
2022/12/29 04:12:14;;;;;;;2.85;1.48;;;;;;;11.69;100.00;99504.63;4996101;28;20195;-73
2022/12/29 04:14:41;;;;;;;2.45;1.80;;;;;;;11.73;100.00;99502.59;4993668;28;20770;-71
2022/12/29 04:17:07;;;;;;;3.65;1.70;;;;;;;11.75;100.00;99498.81;4995525;28;20207;-71
2022/12/29 04:19:34;;;;;;;2.47;1.60;;;;;;;11.78;100.00;99503.16;4994813;28;20214;-71
2022/12/29 04:22:00;;;;;;;2.40;1.65;;;;;;;11.82;100.00;99500.16;4995287;28;20325;-71
2022/12/29 04:24:28;;;;;;;3.20;2.00;;;;;;;11.85;100.00;99501.81;4995034;28;20233;-71
2022/12/29 04:26:55;;;;;;;3.65;2.13;;;;;;;11.89;100.00;99495.25;4994981;28;20210;-71
2022/12/29 04:29:22;;;;;;;2.70;1.65;;;;;;;11.85;100.00;99502.66;4993305;28;20204;-72
2022/12/29 04:31:48;;;;;;;3.15;1.52;;;;;;;11.89;100.00;99493.44;4995141;28;20202;-72
2022/12/29 04:34:15;;;;;;;3.15;1.80;;;;;;;11.91;100.00;99484.38;4994454;28;20227;-72
2022/12/29 04:36:42;;;;;;;2.55;2.25;;;;;;;12.01;100.00;99509.81;4994187;28;20218;-71
2022/12/29 04:39:08;;;;;;;3.15;2.45;;;;;;;12.01;100.00;99504.41;4993556;28;20207;-72
2022/12/29 04:41:36;;;;;;;2.20;1.13;;;;;;;12.04;100.00;99515.84;5000934;28;20211;-73
2022/12/29 04:44:03;;;;;;;3.22;1.40;;;;;;;12.14;100.00;99507.16;5006957;28;20223;-73
2022/12/29 04:46:29;;;;;;;6.00;1.88;;;;;;;12.15;100.00;99477.38;5003447;28;20270;-71
2022/12/29 04:48:56;;;;;;;3.33;1.52;;;;;;;12.18;100.00;99501.44;4994649;28;20207;-72
2022/12/29 04:51:22;;;;;;;2.42;1.45;;;;;;;12.18;100.00;99482.53;4993156;28;20211;-72
2022/12/29 04:53:49;;;;;;;3.50;1.65;;;;;;;12.16;100.00;99491.72;4993970;28;20219;-72
2022/12/29 04:56:15;;;;;;;5.68;1.60;;;;;;;12.18;100.00;99477.16;4995483;28;20279;-73
2022/12/29 04:58:43;;;;;;;2.92;1.70;;;;;;;12.16;100.00;99480.91;4993076;28;20195;-72
2022/12/29 05:01:10;;;;;;;2.50;1.52;;;;;;;12.11;100.00;99492.03;4993648;28;20203;-72
2022/12/29 05:03:36;;;;;;;3.08;1.40;;;;;;;12.04;100.00;99520.38;4994453;28;20654;-71
2022/12/29 05:06:03;;;;;;;3.72;1.85;;;;;;;11.96;100.00;99504.72;4999780;28;20202;-72
2022/12/29 05:08:29;;;;;;;8.10;1.88;;;;;;;11.96;100.00;99509.22;5004944;28;20199;-73
2022/12/29 05:10:56;;;;;;;1.95;1.38;;;;;;;11.91;100.00;99512.22;5002056;28;20230;-72
2022/12/29 05:13:22;;;;;;;3.05;1.70;;;;;;;11.85;100.00;99510.75;5023707;23;21394;-75
2022/12/29 05:15:52;;;;;;;2.05;1.35;;;;;;;11.95;100.00;99510.19;5015471;28;20245;-74
2022/12/29 05:18:19;;;;;;;4.00;2.17;;;;;;;11.92;100.00;99523.88;5015609;28;20233;-72
2022/12/29 05:20:46;;;;;;;2.72;1.70;;;;;;;11.93;100.00;99510.28;5016805;28;20214;-73
2022/12/29 05:23:13;;;;;;;2.30;1.35;;;;;;;11.94;100.00;99509.34;5015944;28;20317;-76
2022/12/29 05:25:39;;;;;;;2.55;1.65;;;;;;;11.86;100.00;99520.56;5015155;28;20310;-73
2022/12/29 05:28:06;;;;;;;3.15;1.58;;;;;;;11.77;100.00;99507.69;5016673;28;20225;-74
2022/12/29 05:30:33;;;;;;;4.30;2.10;;;;;;;11.73;100.00;99513.38;5017686;28;20265;-74
2022/12/29 05:33:00;;;;;;;4.18;1.65;;;;;;;11.76;100.00;99494.28;5016491;28;20201;-73
2022/12/29 05:35:27;;;;;;;2.63;1.92;;;;;;;11.80;100.00;99502.13;5020196;28;20213;-73
2022/12/29 05:37:54;;;;;;;2.45;1.33;;;;;;;11.84;100.00;99500.91;5035764;28;20202;-72
2022/12/29 05:40:20;;;;;;;1.80;1.23;;;;;;;11.86;100.00;99480.09;5043467;28;20198;-72
2022/12/29 05:42:48;;;;;;;3.42;1.58;;;;;;;11.89;100.00;99484.47;5024168;28;20228;-74
2022/12/29 05:45:14;;;;;;;2.33;1.50;;;;;;;11.95;100.00;99477.81;5022402;28;20248;-73
2022/12/29 05:47:41;;;;;;;3.47;2.00;;;;;;;11.96;100.00;99480.44;5020134;28;20218;-75
2022/12/29 05:50:09;;;;;;;3.75;1.55;;;;;;;12.03;100.00;99462.84;5021832;28;20567;-73
2022/12/29 05:52:35;;;;;;;2.78;1.60;;;;;;;12.06;100.00;99473.44;5023912;28;20224;-73
2022/12/29 05:55:02;;;;;;;2.22;1.48;;;;;;;12.09;100.00;99475.91;5023786;28;20234;-72
2022/12/29 05:57:28;;;;;;;3.63;1.85;;;;;;;12.08;100.00;99482.31;5022165;28;20203;-73
2022/12/29 05:59:55;;;;;;;3.05;1.70;;;;;;;12.19;100.00;99496.91;5021619;28;20226;-74
2022/12/29 06:02:24;;;;;;;4.25;1.63;;;;;;;12.23;100.00;99468.75;5023311;28;20227;-76
2022/12/29 06:04:50;;;;;;;2.78;2.08;;;;;;;12.25;100.00;99473.06;5025020;28;20241;-76
2022/12/29 06:07:18;;;;;;;1.85;1.55;;;;;;;12.34;100.00;99468.03;5028239;28;20270;-75
2022/12/29 06:09:45;;;;;;;2.55;1.30;;;;;;;12.34;100.00;99457.22;5027771;28;20225;-74
2022/12/29 06:12:11;;;;;;;3.20;1.27;;;;;;;12.41;100.00;99477.44;5036216;28;20480;-75
2022/12/29 06:14:38;;;;;;;2.03;1.50;;;;;;;12.39;100.00;99482.97;5051846;28;20292;-74
2022/12/29 06:17:04;;;;;;;3.13;1.50;;;;;;;12.42;100.00;99488.16;5052661;28;20201;-73
2022/12/29 06:19:31;;;;;;;4.93;1.70;;;;;;;12.37;100.00;99489.41;5036610;28;20274;-74
2022/12/29 06:21:57;;;;;;;2.95;1.30;;;;;;;12.42;100.00;99492.69;5040843;28;20286;-74
2022/12/29 06:24:25;;;;;;;5.80;2.08;;;;;;;12.47;100.00;99469.78;5033780;28;20218;-72
2022/12/29 06:26:52;;;;;;;5.40;1.60;;;;;;;12.47;100.00;99479.72;5032752;28;20198;-72
2022/12/29 06:29:20;;;;;;;3.08;1.55;;;;;;;12.46;100.00;99515.81;5038208;28;20197;-74
2022/12/29 06:31:47;;;;;;;2.17;1.55;;;;;;;12.47;100.00;99495.94;5030624;28;20714;-73
2022/12/29 06:34:13;;;;;;;2.92;1.65;;;;;;;12.43;100.00;99472.81;5039711;28;20212;-76
2022/12/29 06:36:40;;;;;;;2.60;1.40;;;;;;;12.42;100.00;99492.69;5027396;28;20205;-73
2022/12/29 06:39:06;;;;;;;1.83;1.20;;;;;;;12.39;100.00;99487.47;5024615;28;20208;-75
2022/12/29 06:41:34;;;;;;;2.33;1.67;;;;;;;12.39;100.00;99500.97;5026905;28;20199;-72
2022/12/29 06:44:01;;;;;;;3.35;1.60;;;;;;;12.51;100.00;99479.41;5026048;28;20233;-73
2022/12/29 06:46:27;;;;;;;3.30;1.65;;;;;;;12.57;100.00;99488.06;5022514;28;20266;-69
2022/12/29 06:48:54;;;;;;;3.35;2.35;;;;;;;12.56;100.00;99484.50;5020457;28;20247;-71
2022/12/29 06:51:21;;;;;;;43.40;32.13;;;;;;;12.56;100.00;99491.75;5037745;28;20202;-70
2022/12/29 06:53:48;;;;;;;4.40;2.42;;;;;;;12.48;100.00;99481.44;5021902;28;20223;-75
2022/12/29 06:56:15;;;;;;;4.55;1.90;;;;;;;12.33;100.00;99487.91;5021066;28;20209;-73
2022/12/29 06:58:43;;;;;;;3.10;2.10;;;;;;;12.29;100.00;99473.75;5021217;28;20233;-74
2022/12/29 07:01:09;;;;;;;9.70;2.10;;;;;;;12.26;100.00;99488.31;5023190;28;20195;-74
2022/12/29 07:03:36;;;;;;;2.70;1.40;;;;;;;12.28;100.00;99496.31;5023328;28;20305;-75
2022/12/29 07:06:02;;;;;;;3.40;2.42;;;;;;;12.21;100.00;99476.97;5024654;28;20262;-74
2022/12/29 07:08:29;;;;;;;9.35;2.05;;;;;;;12.19;100.00;99476.19;5025084;28;20690;-77
2022/12/29 07:10:55;;;;;;;2.67;1.67;;;;;;;12.14;100.00;99470.22;5023973;28;20207;-77
2022/12/29 07:13:22;;;;;;;3.95;2.00;;;;;;;12.00;100.00;99468.44;5024429;28;20288;-74
2022/12/29 07:15:50;;;;;;;4.55;2.03;;;;;;;11.95;100.00;99477.81;5025390;28;20203;-75
2022/12/29 07:18:16;;;;;;;3.35;1.58;;;;;;;11.97;100.00;99467.78;5030670;28;20222;-73
2022/12/29 07:20:43;;;;;;;2.55;1.70;;;;;;;12.04;100.00;99458.31;5027319;28;20221;-73
2022/12/29 07:23:09;;;;;;;4.43;1.90;;;;;;;12.16;100.00;99459.34;5023072;28;20256;-73
2022/12/29 07:25:36;;;;;;;4.15;2.00;;;;;;;12.16;100.00;99479.09;5023493;28;20229;-74
2022/12/29 07:28:03;;;;;;;2.63;1.77;;;;;;;12.16;100.00;99483.63;5021407;28;20198;-73
2022/12/29 07:30:30;;;;;;;5.85;2.00;;;;;;;12.16;100.00;99481.78;5022419;28;20209;-74
2022/12/29 07:32:58;;;;;;;4.25;2.50;;;;;;;12.18;100.00;99463.66;5032014;28;20225;-75
2022/12/29 07:35:24;;;;;;;2.67;2.00;;;;;;;12.20;100.00;99455.47;5031601;28;20252;-72
2022/12/29 07:37:51;;;;;;;2.20;1.45;;;;;;;12.28;100.00;99475.59;5030864;28;20262;-73
2022/12/29 07:40:18;;;;;;;2.67;1.80;;;;;;;12.27;100.00;99468.44;5030801;28;20195;-75
2022/12/29 07:42:44;;;;;;;4.15;1.92;;;;;;;12.33;100.00;99466.31;5024935;28;20239;-75
2022/12/29 07:45:11;;;;;;;3.30;1.90;;;;;;;12.34;100.00;99482.38;5023847;28;20241;-73
2022/12/29 07:47:37;;;;;;;4.80;2.20;;;;;;;12.40;100.00;99464.91;5024216;28;20201;-76
2022/12/29 07:50:07;;;;;;;3.55;1.65;;;;;;;12.41;100.00;99483.69;5023819;28;20198;-73
2022/12/29 07:52:33;;;;;;;2.72;1.52;;;;;;;12.37;100.00;99489.41;5021045;28;20294;-74
2022/12/29 07:55:00;;;;;;;2.65;2.00;;;;;;;12.39;100.00;99485.66;5022989;28;20309;-76
2022/12/29 07:57:26;;;;;;;5.32;1.90;;;;;;;12.39;100.00;99485.66;5021188;28;20294;-75
2022/12/29 07:59:53;;;;;;;2.30;1.70;;;;;;;12.39;100.00;99473.97;5019641;28;20191;-74
2022/12/29 08:02:19;;;;;;;3.00;2.20;;;;;;;12.41;100.00;99489.09;5021383;28;20205;-72
2022/12/29 08:04:46;;;;;;;4.30;2.20;;;;;;;12.39;100.00;99482.97;5021790;28;20281;-74
2022/12/29 08:07:14;;;;;;;5.30;2.60;;;;;;;12.32;100.00;99495.13;5019489;28;20191;-74
2022/12/29 08:09:41;;;;;;;3.25;2.47;;;;;;;12.26;100.00;99507.22;5019434;28;20278;-74
2022/12/29 08:12:10;;;;;;;3.83;2.13;;;;;;;12.23;100.00;99515.53;5017372;28;20217;-73
2022/12/29 08:14:36;;;;;;;3.72;2.40;;;;;;;12.16;100.00;99499.81;5017777;28;20256;-73
2022/12/29 08:17:03;;;;;;;4.25;2.33;;;;;;;12.03;100.00;99526.72;5017939;28;20210;-74
2022/12/29 08:19:29;;;;;;;3.88;2.35;;;;;;;12.09;100.00;99510.16;5016516;28;20297;-69
2022/12/29 08:21:56;;;;;;;4.93;2.70;;;;;;;12.39;100.00;99533.38;5017227;28;20199;-71
2022/12/29 08:24:24;;;;;;;5.47;2.30;;;;;;;12.38;100.00;99521.72;5016842;28;20233;-70
2022/12/29 08:26:50;;;;;;;15.82;11.27;;;;;;;12.44;100.00;99528.56;5018313;28;20217;-71
2022/12/29 08:29:17;;;;;;;4.63;2.50;;;;;;;12.26;100.00;99520.72;5013486;28;20203;-73
2022/12/29 08:31:44;;;;;;;4.03;2.58;;;;;;;12.17;100.00;99539.34;5019281;28;20207;-73
2022/12/29 08:34:10;;;;;;;3.70;2.40;;;;;;;12.24;100.00;99537.97;5019082;28;20219;-73
2022/12/29 08:36:37;;;;;;;2.25;1.60;;;;;;;12.22;100.00;99521.88;5019205;28;20202;-73
2022/12/29 08:39:04;;;;;;;4.97;2.50;;;;;;;12.19;100.00;99532.88;5023091;28;20218;-72
2022/12/29 08:41:32;;;;;;;4.70;2.15;;;;;;;12.24;100.00;99537.97;5027287;28;20636;-73
2022/12/29 08:43:58;;;;;;;5.00;2.63;;;;;;;12.28;100.00;99534.97;5023522;28;20246;-73
2022/12/29 08:46:25;;;;;;;6.95;2.97;;;;;;;12.35;100.00;99540.84;5015398;28;20195;-74
2022/12/29 08:48:51;;;;;;;4.78;2.20;;;;;;;12.37;100.00;99535.31;5018229;28;20289;-73
2022/12/29 08:51:18;;;;;;;7.45;2.67;;;;;;;12.33;100.00;99540.06;5017337;28;20278;-74
2022/12/29 08:53:44;;;;;;;5.35;2.58;;;;;;;12.12;100.00;99553.16;5022305;28;20233;-73
2022/12/29 08:56:12;;;;;;;3.45;2.65;;;;;;;11.80;100.00;99555.19;5020182;28;20573;-73
2022/12/29 08:58:40;;;;;;;5.45;3.17;;;;;;;11.65;100.00;99551.63;5016492;28;20206;-73
2022/12/29 09:01:07;;;;;;;4.85;2.92;;;;;;;11.54;100.00;99559.53;5019053;28;20198;-75
2022/12/29 09:03:33;;;;;;;5.72;2.90;;;;;;;11.40;100.00;99571.19;5017994;28;20313;-73
2022/12/29 09:06:00;;;;;;;3.53;2.90;;;;;;;11.34;100.00;99580.50;5019337;28;20202;-74
2022/12/29 09:08:26;;;;;;;4.43;2.72;;;;;;;11.17;100.00;99576.16;5020445;28;20263;-76
2022/12/29 09:10:53;;;;;;;5.18;3.45;;;;;;;11.08;100.00;99595.59;5025533;28;20241;-73
2022/12/29 09:13:20;;;;;;;7.60;3.38;;;;;;;10.94;100.00;99591.00;5022143;28;20217;-73
2022/12/29 09:15:48;;;;;;;9.43;3.90;;;;;;;10.91;100.00;99596.56;5019454;28;20205;-73
2022/12/29 09:18:14;;;;;;;5.35;3.90;;;;;;;10.92;100.00;99602.81;5021021;28;20751;-73
2022/12/29 09:20:41;;;;;;;7.68;4.47;;;;;;;10.97;100.00;99598.91;5025310;28;20203;-76
2022/12/29 09:23:07;;;;;;;6.32;5.00;;;;;;;10.94;100.00;99604.47;5031023;28;20210;-74
2022/12/29 09:25:34;;;;;;;6.65;4.00;;;;;;;10.96;100.00;99621.41;5027887;28;20226;-76
2022/12/29 09:28:03;;;;;;;5.25;4.28;;;;;;;10.94;100.00;99609.84;5026777;28;20286;-74
2022/12/29 09:30:30;;;;;;;4.78;3.42;;;;;;;10.84;100.00;99622.16;5026640;28;20225;-74
2022/12/29 09:32:58;;;;;;;8.75;3.80;;;;;;;10.73;100.00;99624.59;5030238;28;20230;-73
2022/12/29 09:35:24;;;;;;;8.25;3.50;;;;;;;10.61;100.00;99621.66;5029607;28;20218;-72
2022/12/29 09:37:51;;;;;;;9.25;3.20;;;;;;;10.54;100.00;99635.59;5029272;28;20656;-73
2022/12/29 09:40:30;;;;;;;5.57;3.50;;;;;;;10.51;100.00;99641.13;5030917;28;20206;-72
2022/12/29 09:43:18;;;;;;;6.32;4.03;;;;;;;10.48;100.00;99644.00;5017457;28;20206;-77
2022/12/29 09:45:48;;;;;;;9.60;4.35;;;;;;;10.38;100.00;99659.81;5013838;28;20660;-73
2022/12/29 09:48:21;;;;;;;8.63;4.60;;;;;;;10.30;100.00;99665.59;5014505;28;20609;-74
2022/12/29 09:50:51;;;;;;;5.97;4.03;;;;;;;10.29;100.00;99644.16;5014668;28;20201;-74
2022/12/29 09:53:23;;;;;;;5.15;3.58;;;;;;;10.22;100.00;99639.09;5015202;28;20605;-74
2022/12/29 09:55:52;;;;;;;5.78;4.40;;;;;;;10.15;100.00;99650.28;5015371;28;20183;-74
2022/12/29 09:58:25;;;;;;;5.80;3.75;;;;;;;10.17;100.00;99651.06;5013645;28;20202;-74
2022/12/29 10:00:57;;;;;;;5.50;3.38;;;;;;;10.17;100.00;99645.69;5015417;28;20297;-73
2022/12/29 10:03:33;;;;;;;5.25;4.10;;;;;;;10.12;100.00;99650.47;5015870;28;20182;-73
2022/12/29 10:06:10;;;;;;;6.97;3.83;;;;;;;10.10;100.00;99642.47;5015667;28;20222;-74
2022/12/29 10:08:40;;;;;;;5.18;2.85;;;;;;;10.09;100.00;99638.06;5015541;28;20206;-76
2022/12/29 10:11:21;;;;;;;3.28;2.05;;;;;;;10.12;100.00;99645.06;5015336;28;20210;-73
2022/12/29 10:14:04;;;;;;;6.40;1.98;;;;;;;10.06;100.00;99635.50;4996052;28;20234;-74
2022/12/29 10:16:39;;;;;;;3.25;2.17;;;;;;;10.06;100.00;99640.03;4995636;28;20210;-73
2022/12/29 10:19:35;;;;;;;3.45;1.73;;;;;;;10.03;100.00;99650.00;5001589;28;20226;-73
2022/12/29 10:22:15;;;;;;;3.10;1.58;;;;;;;9.99;100.00;99626.94;5015086;28;20199;-72
2022/12/29 10:24:47;;;;;;;3.10;1.85;;;;;;;9.94;100.00;99626.31;5015239;28;20214;-73
2022/12/29 10:27:16;;;;;;;2.95;1.40;;;;;;;9.93;100.00;99632.66;4999550;28;20294;-74
2022/12/29 10:29:49;;;;;;;1.75;1.42;;;;;;;9.93;100.00;99632.66;5000713;28;20206;-75
2022/12/29 10:32:26;;;;;;;3.60;1.70;;;;;;;9.91;100.00;99645.31;5014845;28;20677;-74
2022/12/29 10:34:58;;;;;;;2.90;1.48;;;;;;;9.99;100.00;99647.56;4996492;28;20222;-74
2022/12/29 10:37:37;;;;;;;3.05;1.40;;;;;;;9.99;100.00;99631.44;5014983;28;20624;-73
2022/12/29 10:40:19;;;;;;;4.90;1.42;;;;;;;10.09;100.00;99646.13;5014855;28;20206;-73
2022/12/29 10:42:50;;;;;;;2.10;1.10;;;;;;;10.15;100.00;99637.72;5013850;28;20212;-73
2022/12/29 10:45:19;;;;;;;2.45;1.42;;;;;;;10.24;100.00;99644.38;5014825;28;20218;-74
2022/12/29 10:47:54;;;;;;;4.50;1.27;;;;;;;10.37;100.00;99640.09;5014125;28;20207;-72
2022/12/29 10:50:23;;;;;;;1.90;1.10;;;;;;;10.44;100.00;99645.97;5015134;28;20198;-74
2022/12/29 10:52:51;;;;;;;3.58;1.60;;;;;;;10.50;100.00;99640.25;5014328;28;20203;-73
2022/12/29 10:55:22;;;;;;;4.25;1.50;;;;;;;10.64;100.00;99640.31;5014953;28;20238;-74
2022/12/29 10:57:49;;;;;;;4.85;1.50;;;;;;;10.78;100.00;99641.34;5015546;28;20203;-73
2022/12/29 11:00:20;;;;;;;2.80;1.40;;;;;;;10.80;100.00;99637.59;5018086;28;20203;-73
2022/12/29 11:03:07;;;;;;;27.40;20.52;;;;;;;11.04;100.00;99632.59;5019210;28;20191;-70
2022/12/29 11:05:38;;;;;;;3.20;2.15;;;;;;;11.08;100.00;99633.31;5030013;28;20226;-74
2022/12/29 11:08:10;;;;;;;2.78;1.40;;;;;;;11.04;100.00;99632.59;5030086;28;20188;-74
2022/12/29 11:10:40;;;;;;;2.08;1.05;;;;;;;11.25;100.00;99627.75;5021123;28;20195;-74
2022/12/29 11:13:14;;;;;;;3.92;1.48;;;;;;;11.55;100.00;99625.97;5020031;28;20196;-73
2022/12/29 11:15:42;;;;;;;2.40;1.20;;;;;;;11.71;100.00;99629.44;5030740;22;20232;-73
2022/12/29 11:18:20;;;;;;;1.90;0.90;;;;;;;11.59;100.00;99630.22;5015062;28;20202;-73
2022/12/29 11:20:49;;;;;;;4.50;1.20;;;;;;;11.70;100.00;99649.31;5017196;28;20183;-73
2022/12/29 11:23:29;;;;;;;2.45;1.00;;;;;;;11.71;100.00;99645.63;5024216;28;20202;-72
2022/12/29 11:26:17;;;;;;;3.92;1.10;;;;;;;11.80;100.00;99658.56;5016240;28;20229;-73
2022/12/29 11:28:46;;;;;;;2.08;1.10;;;;;;;12.09;100.00;99651.34;5035177;28;20266;-73
2022/12/29 11:31:18;;;;;;;2.60;1.25;;;;;;;12.55;100.00;99643.94;5025042;28;20219;-72
2022/12/29 11:33:44;;;;;;;2.10;1.00;;;;;;;12.38;100.00;99653.16;5030435;28;20213;-74
2022/12/29 11:36:16;;;;;;;3.33;1.33;;;;;;;12.62;100.00;99654.28;5029458;28;20202;-71
2022/12/29 11:38:47;;;;;;;1.55;1.25;;;;;;;12.68;100.00;99647.56;5015101;28;20194;-73
2022/12/29 11:41:19;;;;;;;2.10;1.17;;;;;;;13.61;100.00;99639.50;5015113;28;20197;-73
2022/12/29 11:43:47;;;;;;;2.03;0.93;;;;;;;14.85;100.00;99654.06;5014969;28;20704;-73
2022/12/29 11:46:17;;;;;;;1.85;1.23;;;;;;;14.37;100.00;99642.16;5020699;28;20205;-72
2022/12/29 11:48:44;;;;;;;2.47;1.25;;;;;;;13.94;100.00;99629.00;5020345;28;20213;-74
2022/12/29 11:51:12;;;;;;;2.10;1.00;;;;;;;13.68;100.00;99630.88;5017459;28;20202;-73
2022/12/29 11:53:44;;;;;;;2.42;1.00;;;;;;;13.83;100.00;99630.75;5017055;28;20209;-74
2022/12/29 11:56:14;;;;;;;3.20;1.05;;;;;;;13.88;100.00;99620.47;5028011;28;20186;-74
2022/12/29 11:58:41;;;;;;;4.43;1.40;;;;;;;13.49;100.00;99615.06;5037679;28;20601;-74
2022/12/29 12:01:14;;;;;;;2.47;0.98;;;;;;;13.31;100.00;99616.34;5038244;28;20220;-73
2022/12/29 12:03:48;;;;;;;3.97;1.30;;;;;;;13.24;100.00;99623.97;5036732;28;20194;-73
2022/12/29 12:06:23;;;;;;;2.03;1.05;;;;;;;13.46;100.00;99620.69;5036533;28;20265;-71